createdAt,value
2022-12-15T00:02:35.499Z,66.90
2022-12-15T00:05:21.427Z,66.90
2022-12-15T00:08:06.912Z,66.90
2022-12-15T00:10:52.359Z,66.90
2022-12-15T00:13:37.738Z,66.80
2022-12-15T00:16:23.423Z,66.80
2022-12-15T00:19:08.662Z,66.80
2022-12-15T00:21:54.245Z,66.80
2022-12-15T00:24:39.578Z,66.80
2022-12-15T00:27:25.057Z,66.80
2022-12-15T00:30:10.584Z,66.70
2022-12-15T00:32:56.296Z,66.80
2022-12-15T00:35:41.843Z,66.80
2022-12-15T00:38:29.964Z,66.70
2022-12-15T00:40:59.683Z,66.70
2022-12-15T00:43:35.249Z,66.70
2022-12-15T00:46:21.928Z,66.70
2022-12-15T00:48:48.868Z,66.70
2022-12-15T00:51:16.849Z,66.70
2022-12-15T00:54:02.365Z,66.70
2022-12-15T00:56:48.458Z,66.70
2022-12-15T00:59:35.221Z,66.60
2022-12-15T01:02:22.308Z,66.60
2022-12-15T01:05:07.679Z,66.60
2022-12-15T01:07:52.907Z,66.60
2022-12-15T01:10:38.583Z,66.60
2022-12-15T01:13:24.479Z,66.60
2022-12-15T01:16:09.982Z,66.60
2022-12-15T01:18:55.332Z,66.60
2022-12-15T01:21:25.122Z,66.60
2022-12-15T01:23:52.493Z,66.60
2022-12-15T01:26:19.652Z,66.60
2022-12-15T01:28:46.447Z,66.70
2022-12-15T01:31:13.572Z,66.60
2022-12-15T01:33:42.687Z,66.60
2022-12-15T01:36:10.548Z,66.60
2022-12-15T01:38:37.380Z,66.60
2022-12-15T01:41:08.150Z,66.60
2022-12-15T01:43:39.428Z,66.50
2022-12-15T01:46:19.198Z,66.50
2022-12-15T01:48:59.036Z,66.50
2022-12-15T01:51:39.496Z,66.50
2022-12-15T01:54:12.486Z,66.50
2022-12-15T01:56:43.630Z,66.50
2022-12-15T01:59:16.539Z,66.50
2022-12-15T02:01:43.509Z,66.50
2022-12-15T02:04:21.656Z,66.40
2022-12-15T02:06:48.595Z,66.40
2022-12-15T02:09:17.427Z,66.50
2022-12-15T02:11:50.014Z,66.50
2022-12-15T02:14:40.439Z,66.50
2022-12-15T02:17:13.931Z,66.50
2022-12-15T02:20:02.058Z,66.40
2022-12-15T02:22:50.581Z,66.40
2022-12-15T02:25:41.219Z,66.40
2022-12-15T02:28:12.717Z,66.50
2022-12-15T02:30:42.345Z,66.50
2022-12-15T02:33:24.135Z,66.50
2022-12-15T02:35:53.922Z,66.50
2022-12-15T02:38:38.233Z,66.50
2022-12-15T02:41:25.954Z,66.50
2022-12-15T02:43:52.734Z,66.50
2022-12-15T02:46:39.120Z,66.50
2022-12-15T02:49:12.328Z,66.60
2022-12-15T02:52:01.774Z,66.50
2022-12-15T02:54:46.923Z,66.60
2022-12-15T02:57:51.198Z,66.60
2022-12-15T03:00:18.740Z,66.60
2022-12-15T03:02:49.995Z,66.60
2022-12-15T03:05:18.580Z,66.60
2022-12-15T03:07:45.382Z,66.60
2022-12-15T03:10:17.063Z,66.60
2022-12-15T03:12:43.746Z,66.70
2022-12-15T03:15:11.077Z,66.70
2022-12-15T03:17:38.323Z,66.70
2022-12-15T03:20:06.316Z,66.70
2022-12-15T03:22:32.976Z,66.60
2022-12-15T03:24:59.716Z,66.60
2022-12-15T03:27:26.634Z,66.60
2022-12-15T03:29:53.298Z,66.60
2022-12-15T03:32:20.123Z,66.50
2022-12-15T03:34:46.956Z,66.50
2022-12-15T03:37:13.645Z,66.50
2022-12-15T03:39:40.351Z,66.50
2022-12-15T03:42:07.006Z,66.50
2022-12-15T03:44:33.634Z,66.50
2022-12-15T03:47:03.633Z,66.50
2022-12-15T03:49:30.574Z,66.50
2022-12-15T03:51:57.223Z,66.50
2022-12-15T03:54:23.871Z,66.40
2022-12-15T03:56:50.514Z,66.40
2022-12-15T03:59:17.195Z,66.40
2022-12-15T04:01:48.019Z,66.40
2022-12-15T04:04:15.201Z,66.40
2022-12-15T04:06:41.923Z,66.40
2022-12-15T04:09:08.550Z,66.40
2022-12-15T04:11:35.197Z,66.40
2022-12-15T04:14:01.990Z,66.40
2022-12-15T04:16:29.305Z,66.40
2022-12-15T04:19:14.767Z,66.40
2022-12-15T04:21:41.702Z,66.40
2022-12-15T04:24:26.861Z,66.40
2022-12-15T04:27:12.078Z,66.40
2022-12-15T04:29:57.144Z,66.40
2022-12-15T04:32:42.602Z,66.40
2022-12-15T04:35:29.398Z,66.40
2022-12-15T04:38:15.254Z,66.40
2022-12-15T04:41:00.768Z,66.40
2022-12-15T04:43:46.483Z,66.40
2022-12-15T04:46:33.308Z,66.40
2022-12-15T04:49:18.771Z,66.40
2022-12-15T04:52:04.067Z,66.40
2022-12-15T04:54:58.347Z,66.40
2022-12-15T04:57:43.500Z,66.40
2022-12-15T05:00:29.304Z,66.40
2022-12-15T05:06:11.854Z,66.40
2022-12-15T05:08:57.172Z,66.40
2022-12-15T05:11:42.410Z,66.40
2022-12-15T05:14:27.937Z,66.50
2022-12-15T05:17:13.400Z,66.40
2022-12-15T05:19:58.759Z,66.40
2022-12-15T05:22:45.108Z,66.40
2022-12-15T05:25:30.703Z,66.40
2022-12-15T05:28:16.107Z,66.40
2022-12-15T05:31:01.513Z,66.40
2022-12-15T05:33:28.613Z,66.40
2022-12-15T05:35:58.616Z,66.40
2022-12-15T05:38:25.444Z,66.40
2022-12-15T05:40:52.445Z,66.40
2022-12-15T05:43:24.619Z,66.40
2022-12-15T05:45:53.008Z,66.40
2022-12-15T05:48:19.684Z,66.30
2022-12-15T05:50:46.474Z,66.30
2022-12-15T05:53:13.164Z,66.30
2022-12-15T05:55:39.911Z,66.30
2022-12-15T05:58:06.655Z,66.30
2022-12-15T06:00:33.836Z,66.20
2022-12-15T06:03:00.670Z,66.20
2022-12-15T06:05:27.404Z,66.20
2022-12-15T06:07:54.618Z,66.20
2022-12-15T06:10:21.293Z,66.20
2022-12-15T06:12:48.222Z,66.10
2022-12-15T06:15:14.917Z,66.20
2022-12-15T06:17:41.659Z,66.10
2022-12-15T06:20:08.851Z,66.10
2022-12-15T06:22:35.539Z,66.10
2022-12-15T06:25:02.148Z,66.10
2022-12-15T06:27:29.151Z,66.10
2022-12-15T06:29:55.735Z,66.10
2022-12-15T06:32:22.461Z,66.10
2022-12-15T06:34:49.569Z,66.10
2022-12-15T06:37:16.210Z,66.10
2022-12-15T06:39:42.910Z,66.10
2022-12-15T06:42:09.574Z,66.10
2022-12-15T06:44:36.312Z,66.10
2022-12-15T06:47:03.731Z,66.10
2022-12-15T06:49:31.922Z,66.10
2022-12-15T06:51:58.546Z,66.10
2022-12-15T06:54:25.194Z,66.10
2022-12-15T06:56:51.866Z,66.10
2022-12-15T06:59:18.445Z,66.10
2022-12-15T07:01:45.203Z,66.10
2022-12-15T07:04:12.417Z,66.20
2022-12-15T07:06:40.064Z,66.30
2022-12-15T07:09:10.385Z,66.40
2022-12-15T07:11:37.150Z,66.30
2022-12-15T07:14:04.780Z,66.30
2022-12-15T07:16:31.821Z,66.30
2022-12-15T07:18:58.739Z,66.30
2022-12-15T07:21:25.440Z,66.20
2022-12-15T07:23:55.211Z,66.20
2022-12-15T07:26:23.816Z,66.20
2022-12-15T07:28:50.579Z,66.20
2022-12-15T07:31:17.866Z,66.20
2022-12-15T07:33:45.045Z,66.10
2022-12-15T07:36:12.081Z,66.10
2022-12-15T07:38:38.690Z,66.20
2022-12-15T07:41:07.517Z,66.20
2022-12-15T07:43:35.431Z,66.10
2022-12-15T07:46:03.328Z,66.20
2022-12-15T07:48:30.639Z,66.20
2022-12-15T07:51:05.172Z,66.20
2022-12-15T07:53:35.511Z,66.10
2022-12-15T07:56:08.888Z,66.10
2022-12-15T07:58:37.200Z,66.10
2022-12-15T08:01:10.077Z,66.10
2022-12-15T08:03:37.850Z,66.10
2022-12-15T08:06:12.397Z,66.10
2022-12-15T08:08:40.054Z,66.10
2022-12-15T08:11:08.500Z,66.10
2022-12-15T08:14:01.916Z,66.10
2022-12-15T08:16:22.701Z,66.10
2022-12-15T08:18:49.460Z,66.10
2022-12-15T08:21:16.261Z,66.10
2022-12-15T08:23:43.025Z,66.10
2022-12-15T08:26:15.014Z,66.10
2022-12-15T08:28:42.776Z,66.10
2022-12-15T08:31:12.002Z,66.10
2022-12-15T08:33:39.877Z,66.10
2022-12-15T08:36:09.572Z,66.20
2022-12-15T08:38:38.844Z,66.20
2022-12-15T08:41:14.316Z,66.20
2022-12-15T08:43:47.629Z,66.20
2022-12-15T08:46:19.468Z,66.20
2022-12-15T08:48:46.739Z,66.20
2022-12-15T08:51:13.483Z,66.20
2022-12-15T08:53:42.009Z,66.40
2022-12-15T08:56:12.301Z,66.40
2022-12-15T08:58:39.899Z,66.50
2022-12-15T09:01:09.777Z,66.50
2022-12-15T09:03:37.181Z,66.50
2022-12-15T09:06:05.905Z,66.50
2022-12-15T09:08:33.282Z,66.60
2022-12-15T09:11:00.979Z,66.60
2022-12-15T09:13:28.632Z,66.60
2022-12-15T09:16:10.324Z,66.60
2022-12-15T09:18:43.334Z,66.70
2022-12-15T09:21:11.256Z,66.70
2022-12-15T09:23:38.609Z,66.70
2022-12-15T09:26:07.940Z,66.80
2022-12-15T09:28:34.864Z,66.90
2022-12-15T09:31:17.971Z,66.90
2022-12-15T09:33:44.931Z,67.00
2022-12-15T09:36:13.171Z,67.00
2022-12-15T09:38:41.711Z,67.20
2022-12-15T09:41:19.839Z,67.20
2022-12-15T09:44:10.962Z,67.30
2022-12-15T09:46:43.457Z,67.40
2022-12-15T09:49:22.502Z,67.40
2022-12-15T09:51:59.176Z,67.50
2022-12-15T09:54:32.293Z,67.60
2022-12-15T09:57:02.864Z,67.70
2022-12-15T10:00:11.248Z,67.70
2022-12-15T10:02:56.589Z,67.80
2022-12-15T10:06:18.382Z,67.90
2022-12-15T10:08:59.784Z,68.00
2022-12-15T10:12:26.346Z,68.00
2022-12-15T10:15:06.250Z,68.10
2022-12-15T10:17:39.178Z,68.00
2022-12-15T10:20:18.681Z,67.90
2022-12-15T10:22:46.406Z,67.90
2022-12-15T10:25:30.028Z,67.80
2022-12-15T10:28:10.451Z,67.80
2022-12-15T10:30:58.332Z,67.90
2022-12-15T10:33:28.971Z,67.80
2022-12-15T10:35:56.260Z,67.70
2022-12-15T10:38:37.923Z,67.70
2022-12-15T10:41:14.425Z,67.80
2022-12-15T10:43:43.746Z,67.80
2022-12-15T10:46:22.138Z,67.70
2022-12-15T10:49:00.635Z,67.60
2022-12-15T10:51:55.925Z,67.60
2022-12-15T10:54:24.234Z,67.70
2022-12-15T10:56:59.611Z,67.50
2022-12-15T10:59:31.678Z,67.60
2022-12-15T11:02:29.618Z,67.50
2022-12-15T11:05:04.133Z,67.70
2022-12-15T11:07:40.285Z,67.60
2022-12-15T11:10:16.207Z,67.60
2022-12-15T11:12:58.287Z,67.90
2022-12-15T11:15:31.238Z,67.80
2022-12-15T11:18:04.026Z,68.20
2022-12-15T11:20:35.856Z,68.70
2022-12-15T11:23:09.650Z,68.80
2022-12-15T11:25:52.387Z,68.90
2022-12-15T11:28:26.092Z,69.10
2022-12-15T11:31:00.204Z,69.20
2022-12-15T11:33:26.935Z,69.40
2022-12-15T11:36:10.665Z,69.50
2022-12-15T11:38:51.682Z,69.70
2022-12-15T11:41:53.586Z,69.90
2022-12-15T11:44:24.578Z,70.00
2022-12-15T11:47:10.335Z,70.00
2022-12-15T11:50:07.292Z,70.30
2022-12-15T11:52:55.255Z,70.40
2022-12-15T11:55:51.221Z,70.40
2022-12-15T11:58:36.034Z,70.60
2022-12-15T12:01:37.264Z,70.60
2022-12-15T12:04:24.548Z,70.80
2022-12-15T12:07:04.052Z,70.80
2022-12-15T12:09:59.212Z,70.70
2022-12-15T12:12:30.154Z,70.80
2022-12-15T12:15:12.874Z,70.70
2022-12-15T12:17:47.653Z,70.90
2022-12-15T12:20:20.183Z,70.70
2022-12-15T12:23:04.795Z,70.80
2022-12-15T12:25:40.115Z,70.90
2022-12-15T12:28:17.920Z,70.70
2022-12-15T12:30:50.344Z,70.80
2022-12-15T12:33:26.476Z,70.90
2022-12-15T12:36:05.883Z,70.90
2022-12-15T12:38:56.305Z,70.80
2022-12-15T12:41:42.893Z,70.80
2022-12-15T12:44:33.750Z,70.70
2022-12-15T12:47:27.047Z,70.70
2022-12-15T12:50:00.276Z,70.70
2022-12-15T12:52:31.900Z,70.60
2022-12-15T12:55:14.819Z,70.70
2022-12-15T12:57:42.896Z,70.80
2022-12-15T13:00:43.345Z,70.70
2022-12-15T13:03:13.351Z,70.80
2022-12-15T13:05:42.343Z,70.70
2022-12-15T13:08:09.200Z,70.90
2022-12-15T13:10:42.646Z,70.90
2022-12-15T13:13:31.693Z,71.10
2022-12-15T13:16:21.923Z,71.20
2022-12-15T13:19:04.560Z,71.20
2022-12-15T13:21:43.828Z,71.20
2022-12-15T13:24:37.564Z,71.20
2022-12-15T13:27:10.338Z,71.30
2022-12-15T13:29:58.804Z,71.20
2022-12-15T13:32:33.226Z,71.30
2022-12-15T13:35:31.328Z,71.20
2022-12-15T13:38:02.916Z,71.20
2022-12-15T13:40:50.535Z,71.00
2022-12-15T13:43:26.571Z,71.10
2022-12-15T13:46:00.466Z,71.10
2022-12-15T13:48:35.656Z,71.00
2022-12-15T13:51:26.370Z,70.90
2022-12-15T13:53:58.972Z,70.80
2022-12-15T13:56:48.942Z,70.60
2022-12-15T13:59:46.688Z,70.50
2022-12-15T14:02:36.318Z,70.50
2022-12-15T14:05:17.451Z,70.30
2022-12-15T14:07:54.343Z,70.20
2022-12-15T14:10:34.795Z,70.00
2022-12-15T14:13:15.954Z,70.00
2022-12-15T14:15:46.814Z,69.70
2022-12-15T14:18:28.458Z,69.60
2022-12-15T14:20:55.555Z,69.60
2022-12-15T14:23:29.289Z,69.40
2022-12-15T14:26:08.610Z,69.30
2022-12-15T14:28:38.115Z,69.30
2022-12-15T14:31:10.988Z,69.00
2022-12-15T14:33:40.609Z,69.00
2022-12-15T14:36:20.810Z,68.90
2022-12-15T14:39:02.948Z,68.90
2022-12-15T14:41:33.613Z,68.80
2022-12-15T14:44:37.365Z,68.70
2022-12-15T14:47:05.870Z,68.70
2022-12-15T14:49:42.571Z,68.50
2022-12-15T14:52:25.854Z,68.60
2022-12-15T14:54:57.499Z,68.60
2022-12-15T14:57:28.663Z,68.40
2022-12-15T14:59:55.735Z,68.50
2022-12-15T15:02:29.740Z,68.40
2022-12-15T15:05:07.604Z,68.40
2022-12-15T15:07:37.948Z,68.30
2022-12-15T15:10:22.021Z,68.30
2022-12-15T15:12:49.413Z,68.20
2022-12-15T15:15:21.621Z,68.10
2022-12-15T15:17:57.205Z,68.20
2022-12-15T15:20:29.316Z,68.20
2022-12-15T15:23:16.608Z,68.20
2022-12-15T15:25:55.167Z,68.20
2022-12-15T15:28:25.397Z,68.20
2022-12-15T15:31:05.465Z,68.10
2022-12-15T15:33:32.688Z,68.20
2022-12-15T15:36:01.565Z,68.00
2022-12-15T15:38:31.127Z,68.10
2022-12-15T15:41:18.310Z,68.10
2022-12-15T15:43:45.478Z,68.00
2022-12-15T15:46:18.847Z,68.00
2022-12-15T15:49:01.680Z,68.00
2022-12-15T15:51:30.364Z,68.00
2022-12-15T15:54:01.350Z,67.90
2022-12-15T15:56:30.795Z,67.90
2022-12-15T15:58:59.375Z,67.90
2022-12-15T16:01:26.288Z,67.90
2022-12-15T16:03:53.052Z,67.90
2022-12-15T16:06:21.523Z,67.80
2022-12-15T16:08:53.973Z,67.80
2022-12-15T16:11:22.620Z,67.90
2022-12-15T16:13:49.259Z,67.80
2022-12-15T16:16:19.828Z,67.80
2022-12-15T16:18:46.605Z,67.90
2022-12-15T16:21:14.783Z,67.90
2022-12-15T16:23:46.918Z,67.90
2022-12-15T16:26:16.315Z,67.80
2022-12-15T16:28:42.977Z,67.80
2022-12-15T16:31:15.665Z,67.80
2022-12-15T16:33:42.474Z,67.80
2022-12-15T16:36:15.231Z,67.70
2022-12-15T16:38:42.486Z,67.80
2022-12-15T16:41:15.359Z,67.80
2022-12-15T16:43:47.727Z,67.80
2022-12-15T16:46:15.560Z,67.80
2022-12-15T16:48:43.597Z,67.80
2022-12-15T16:51:27.063Z,67.80
2022-12-15T16:53:53.695Z,67.80
2022-12-15T16:56:20.724Z,67.80
2022-12-15T16:58:48.960Z,67.80
2022-12-15T17:01:19.607Z,67.80
2022-12-15T17:03:47.117Z,67.80
2022-12-15T17:06:15.827Z,67.80
2022-12-15T17:08:44.345Z,67.80
2022-12-15T17:11:22.395Z,67.80
2022-12-15T17:13:51.323Z,67.80
2022-12-15T17:16:19.884Z,67.80
2022-12-15T17:18:47.190Z,67.80
2022-12-15T17:21:18.072Z,67.80
2022-12-15T17:23:48.128Z,67.80
2022-12-15T17:26:29.573Z,67.80
2022-12-15T17:29:01.014Z,67.80
2022-12-15T17:31:34.855Z,67.80
2022-12-15T17:34:08.499Z,67.80
2022-12-15T17:36:35.358Z,67.80
2022-12-15T17:39:02.052Z,67.80
2022-12-15T17:41:58.189Z,67.70
2022-12-15T17:44:34.153Z,67.80
2022-12-15T17:47:05.406Z,67.90
2022-12-15T17:49:36.148Z,67.90
2022-12-15T17:52:08.077Z,68.00
2022-12-15T17:54:35.675Z,68.00
2022-12-15T17:57:02.362Z,68.00
2022-12-15T17:59:29.086Z,68.10
2022-12-15T18:01:57.284Z,68.10
2022-12-15T18:04:24.222Z,68.20
2022-12-15T18:06:50.950Z,68.20
2022-12-15T18:09:19.561Z,68.20
2022-12-15T18:11:46.876Z,68.30
2022-12-15T18:14:15.875Z,68.30
2022-12-15T18:16:42.858Z,68.30
2022-12-15T18:19:09.678Z,68.30
2022-12-15T18:21:36.740Z,68.30
2022-12-15T18:24:04.121Z,68.30
2022-12-15T18:26:37.719Z,68.30
2022-12-15T18:29:17.712Z,68.30
2022-12-15T18:31:46.778Z,68.30
2022-12-15T18:34:16.154Z,68.30
2022-12-15T18:36:42.992Z,68.40
2022-12-15T18:39:23.440Z,68.30
2022-12-15T18:41:51.644Z,68.30
2022-12-15T18:44:26.651Z,68.30
2022-12-15T18:46:55.166Z,68.30
2022-12-15T18:49:22.554Z,68.30
2022-12-15T18:51:49.479Z,68.30
2022-12-15T18:54:22.775Z,68.30
2022-12-15T18:56:50.297Z,68.30
2022-12-15T18:59:18.822Z,68.20
2022-12-15T19:01:47.148Z,68.30
2022-12-15T19:04:14.319Z,68.30
2022-12-15T19:06:42.812Z,68.30
2022-12-15T19:09:18.586Z,68.30
2022-12-15T19:12:05.725Z,68.30
2022-12-15T19:14:42.506Z,68.20
2022-12-15T19:17:30.011Z,68.30
2022-12-15T19:20:15.453Z,68.30
2022-12-15T19:22:42.875Z,68.30
2022-12-15T19:25:25.115Z,68.30
2022-12-15T19:27:58.553Z,68.30
2022-12-15T19:30:29.130Z,68.30
2022-12-15T19:32:56.434Z,68.30
2022-12-15T19:35:23.209Z,68.30
2022-12-15T19:37:50.223Z,68.30
2022-12-15T19:40:20.882Z,68.40
2022-12-15T19:42:48.587Z,68.30
2022-12-15T19:45:20.686Z,68.30
2022-12-15T19:47:48.069Z,68.40
2022-12-15T19:50:17.044Z,68.30
2022-12-15T19:52:48.620Z,68.30
2022-12-15T19:55:17.163Z,68.30
2022-12-15T19:57:44.611Z,68.40
2022-12-15T20:00:21.685Z,68.70
2022-12-15T20:02:54.938Z,68.70
2022-12-15T20:05:23.270Z,68.60
2022-12-15T20:07:52.279Z,68.60
2022-12-15T20:10:31.842Z,68.70
2022-12-15T20:13:00.587Z,68.70
2022-12-15T20:15:27.570Z,68.60
2022-12-15T20:17:57.728Z,68.60
2022-12-15T20:20:27.618Z,68.60
2022-12-15T20:22:59.834Z,68.60
2022-12-15T20:25:31.852Z,68.50
2022-12-15T20:28:00.574Z,68.50
2022-12-15T20:30:33.416Z,68.50
2022-12-15T20:33:01.625Z,68.50
2022-12-15T20:35:29.136Z,68.50
2022-12-15T20:37:55.887Z,68.50
2022-12-15T20:40:31.746Z,68.50
2022-12-15T20:42:58.432Z,68.50
2022-12-15T20:45:26.806Z,68.50
2022-12-15T20:47:55.787Z,68.50
2022-12-15T20:50:27.485Z,68.50
2022-12-15T20:52:55.272Z,68.50
2022-12-15T20:55:22.027Z,68.50
2022-12-15T20:57:49.005Z,68.50
2022-12-15T21:00:18.118Z,68.50
2022-12-15T21:02:46.575Z,68.50
2022-12-15T21:05:22.387Z,68.50
2022-12-15T21:07:49.745Z,68.50
2022-12-15T21:10:18.486Z,68.50
2022-12-15T21:12:48.386Z,68.50
2022-12-15T21:15:23.070Z,68.50
2022-12-15T21:18:08.836Z,68.50
2022-12-15T21:20:45.256Z,68.50
2022-12-15T21:23:24.946Z,68.40
2022-12-15T21:25:52.380Z,68.50
2022-12-15T21:28:20.664Z,68.50
2022-12-15T21:30:48.049Z,68.50
2022-12-15T21:33:15.359Z,68.50
2022-12-15T21:35:46.003Z,68.40
2022-12-15T21:38:28.379Z,68.40
2022-12-15T21:41:00.574Z,68.40
2022-12-15T21:43:30.901Z,68.40
2022-12-15T21:45:58.860Z,68.30
2022-12-15T21:48:44.060Z,68.30
2022-12-15T21:51:14.010Z,68.30
2022-12-15T21:53:40.820Z,68.30
2022-12-15T21:56:18.186Z,68.30
2022-12-15T21:58:46.306Z,68.40
2022-12-15T22:01:15.168Z,68.30
2022-12-15T22:03:57.530Z,68.30
2022-12-15T22:06:27.253Z,68.30
2022-12-15T22:08:58.645Z,68.30
2022-12-15T22:11:31.360Z,68.20
2022-12-15T22:14:01.836Z,68.20
2022-12-15T22:16:29.816Z,68.20
2022-12-15T22:18:58.255Z,68.20
2022-12-15T22:21:25.655Z,68.10
2022-12-15T22:23:52.602Z,68.10
2022-12-15T22:26:24.774Z,68.20
2022-12-15T22:28:51.786Z,68.20
2022-12-15T22:31:18.765Z,68.20
2022-12-15T22:33:45.618Z,68.20
2022-12-15T22:36:12.367Z,68.30
2022-12-15T22:38:39.055Z,68.30
2022-12-15T22:41:13.145Z,68.30
2022-12-15T22:43:43.214Z,68.40
2022-12-15T22:46:13.569Z,68.40
2022-12-15T22:48:43.641Z,68.40
2022-12-15T22:51:13.691Z,68.50
2022-12-15T22:53:40.394Z,68.40
2022-12-15T22:56:21.856Z,68.40
2022-12-15T22:58:55.724Z,68.50
2022-12-15T23:01:22.424Z,68.50
2022-12-15T23:03:51.447Z,68.50
2022-12-15T23:06:18.818Z,68.50
2022-12-15T23:08:45.469Z,68.60
2022-12-15T23:11:30.736Z,68.70
2022-12-15T23:13:57.451Z,68.60
2022-12-15T23:16:25.210Z,68.70
2022-12-15T23:19:02.581Z,68.70
2022-12-15T23:21:29.457Z,68.80
2022-12-15T23:23:56.279Z,68.80
2022-12-15T23:26:23.971Z,68.70
2022-12-15T23:28:50.844Z,68.80
2022-12-15T23:31:17.993Z,68.80
2022-12-15T23:33:45.232Z,68.70
2022-12-15T23:36:12.453Z,68.70
2022-12-15T23:38:39.746Z,68.70
2022-12-15T23:41:06.974Z,68.60
2022-12-15T23:43:35.981Z,68.60
2022-12-15T23:46:07.623Z,68.50
2022-12-15T23:48:40.666Z,68.50
2022-12-15T23:51:10.863Z,68.50
2022-12-15T23:53:39.025Z,68.40
2022-12-15T23:56:08.402Z,68.40
2022-12-15T23:58:35.671Z,68.40
